Terminal Aerodrome Forecast
Issued by NWS Cleveland, OH

Home | Current Version | Previous Version | Graphics & Text | Print | Product List | Glossary Off
Versions: 1 2 3 4 5 6 7 8 9 10 11 12 13 14 15 16 17 18 19 20

340
FTUS41 KCLE 040541
TAFYNG
TAF
KYNG 040541Z 0406/0506 18004KT P6SM SCT100
     FM041600 20008KT P6SM BKN100
     FM042100 22010KT P6SM -SHRA OVC050
      TEMPO 0421/0423 26015G25KT 3SM TSRA OVC025CB
     FM042300 28007KT 5SM -SHRA BR OVC025=

USA.gov is the U.S. government's official web portal to all federal, state and local government web resources and services.